• Join FlightAware (Why Join?)
  • Login
  • US Flag 
12:49AM EDT


 

Airport Tracker/Info


-or-


 

Live Flight TrackerFlight Track Log ✈ SWA1798 ✈ 18-May-2013 ✈ KDEN - KSTL

Flight Track Log - Related Links

Times and Time Zones

All times are in EDT time to prevent confusion due to time zone crossing. See the SWA1798 flight status page for this flight to view local times or setup timezone preferences in your user account.

Time Position Orientation Groundspeed Altitude Reporting Facility
EDT Latitude Longitude Course Direction KTS MPH feet Rate Location/Type
08:29PM 39.8667 -104.5500 117° Southeast 215 247 7,500  Level Denver TRACON
08:30PM 39.8333 -104.4667 117° Southeast 303 349 9,800 2,220 Climbing Denver TRACON
08:31PM 39.7961 -104.3917 123° Southeast 321 369 11,400 2,640 Climbing Denver Center
08:32PM 39.6997 -104.3933 181° South 346 398 14,500 3,240 Climbing Denver Center
08:33PM 39.5978 -104.4058 185° South 365 420 18,000 2,760 Climbing Denver Center
08:34PM 39.4964 -104.4164 185° South 364 419 20,200 2,280 Climbing Denver Center
08:35PM 39.3872 -104.4294 185° South 390 449 22,700 1,740 Climbing Denver Center
08:36PM 39.2672 -104.4442 185° South 400 460 23,800 1,440 Climbing Denver Center
08:37PM 39.1561 -104.4556 185° South 401 461 25,700 1,920 Climbing Denver Center
08:38PM 39.0522 -104.4367 172° South 397 457 27,800 1,860 Climbing Denver Center
08:39PM 38.9267 -104.4003 167° South 411 473 29,600 1,680 Climbing Denver Center
08:40PM 38.8158 -104.3689 168° South 422 486 31,300 1,740 Climbing Denver Center
08:41PM 38.7053 -104.3381 168° South 424 488 33,200 1,620 Climbing Denver Center
08:42PM 38.5928 -104.2519 149° Southeast 430 495 34,700 1,200 Climbing Denver Center
08:43PM 38.5044 -104.1561 140° Southeast 433 498 35,700 840 Climbing Denver Center
08:44PM 38.4150 -104.0567 139° Southeast 445 512 36,500 840 Climbing Denver Center
08:45PM 38.3403 -103.9017 122° Southeast 460 529 37,700 1,080 Climbing Denver Center
08:46PM 38.2664 -103.7458 121° Southeast 457 526 39,000 600 Climbing Denver Center
08:47PM 38.1936 -103.5922 121° Southeast 454 522 39,000  Level Denver Center
08:48PM 38.1300 -103.4589 121° Southeast 457 526 39,000  Level Denver Center
08:49PM 38.0667 -103.3239 121° Southeast 461 531 39,000  Level Denver Center
08:50PM 37.9922 -103.1667 121° Southeast 463 533 39,000  Level Denver Center
08:51PM 37.9286 -103.0344 121° Southeast 459 528 39,000  Level Denver Center
08:52PM 37.8653 -102.8997 121° Southeast 462 532 39,000  Level Denver Center
08:53PM 37.7892 -102.7458 122° Southeast 460 529 39,000  Level Denver Center
08:54PM 37.7261 -102.6156 121° Southeast 456 525 39,000  Level Denver Center
08:55PM 37.6556 -102.4683 121° Southeast 456 525 39,000  Level Denver Center
08:56PM 37.5925 -102.3381 121° Southeast 457 526 39,000  Level Denver Center
08:57PM 37.5292 -102.2092 122° Southeast 454 522 39,000  Level Denver Center
08:58PM 37.4553 -102.0600 122° Southeast 452 520 39,000  Level Denver Center
08:59PM 37.3944 -101.9347 121° Southeast 444 511 39,000  Level Denver Center
09:00PM 37.3519 -101.8531 123° Southeast 439 505 39,000  Level Kansas City Center
09:01PM 37.2811 -101.7089 122° Southeast 436 502 39,000  Level Kansas City Center
09:02PM 37.2211 -101.5889 122° Southeast 431 496 39,000 -180 Level Kansas City Center
09:03PM 37.1606 -101.4694 122° Southeast 427 491 38,700 -720 Descending Kansas City Center
09:04PM 37.0900 -101.3281 122° Southeast 429 494 37,600 -840 Descending Kansas City Center
09:05PM 37.0269 -101.2044 123° Southeast 436 502 37,000 -300 Descending Kansas City Center
09:06PM 36.9539 -101.0592 122° Southeast 441 507 37,000  Level Kansas City Center
09:07PM 36.8917 -100.9364 122° Southeast 441 507 37,000  Level Kansas City Center
09:08PM 36.8306 -100.8167 123° Southeast 434 499 37,000  Level Kansas City Center
09:09PM 36.7592 -100.6772 123° Southeast 429 494 37,000  Level Kansas City Center
09:10PM 36.6978 -100.5586 123° Southeast 427 491 37,000 -180 Level Kansas City Center
09:11PM 36.6383 -100.4436 123° Southeast 419 482 36,700 -1,020 Descending Kansas City Center
09:12PM 36.5475 -100.3564 142° Southeast 398 458 35,000 -1,380 Descending Kansas City Center
09:13PM 36.4561 -100.2694 143° Southeast 408 470 33,900 -1,020 Descending Kansas City Center
09:14PM 36.3772 -100.1636 133° Southeast 432 497 33,000 -480 Descending Kansas City Center
09:15PM 36.3967 -100.0125 81° East 452 520 33,000  Level Kansas City Center
09:16PM 36.4650 -99.8783 58° Northeast 456 525 33,000  Level Kansas City Center
09:17PM 36.5319 -99.7433 58° Northeast 455 524 33,000  Level Kansas City Center
09:18PM 36.5981 -99.6092 58° Northeast 454 522 33,000  Level Kansas City Center
09:19PM 36.6639 -99.4761 58° Northeast 450 518 33,000  Level Kansas City Center
09:20PM 36.7308 -99.3400 58° Northeast 454 522 33,000  Level Kansas City Center
09:21PM 36.7967 -99.2036 59° Northeast 455 524 33,000  Level Kansas City Center
09:22PM 36.8528 -99.0314 68° East 444 511 33,000  Level Kansas City Center
09:23PM 36.8981 -98.8847 69° East 448 516 33,000  Level Kansas City Center
09:24PM 36.9419 -98.7347 70° East 453 521 33,000  Level Kansas City Center
09:25PM 36.9822 -98.5822 72° East 456 525 33,000  Level Kansas City Center
09:26PM 37.0214 -98.4256 73° East 465 535 33,000  Level Kansas City Center
09:27PM 37.0594 -98.2944 70° East 460 529 33,000  Level Kansas City Center
09:28PM 37.1067 -98.1444 68° East 461 531 33,000  Level Kansas City Center
09:29PM 37.1489 -97.9892 71° East 467 537 33,000  Level Kansas City Center
09:31PM 37.1914 -97.8331 71° East 474 545 33,000  Level Kansas City Center
09:32PM 37.2433 -97.6422 71° East 481 554 33,000  Level Kansas City Center
09:33PM 37.2878 -97.4817 71° East 486 559 33,000  Level Kansas City Center
09:34PM 37.3319 -97.3228 71° East 485 558 33,000  Level Kansas City Center
09:35PM 37.3753 -97.1642 71° East 484 557 33,100 540 Climbing Kansas City Center
09:36PM 37.4194 -96.9997 71° East 492 566 34,100 900 Climbing Kansas City Center
09:37PM 37.4647 -96.8328 71° East 502 578 35,000 420 Climbing Kansas City Center
09:38PM 37.5092 -96.6669 71° East 502 578 35,000  Level Kansas City Center
09:39PM 37.5519 -96.5028 72° East 498 573 35,000  Level Kansas City Center
09:40PM 37.5986 -96.3250 72° East 496 571 35,000  Level Kansas City Center
09:41PM 37.6422 -96.1614 71° East 492 566 35,000  Level Kansas City Center
09:42PM 37.6833 -96.0008 72° East 484 557 35,000  Level Kansas City Center
09:43PM 37.7244 -95.8419 72° East 477 549 35,000 -180 Level Kansas City Center
09:44PM 37.7639 -95.6831 73° East 475 547 34,700 -540 Descending Kansas City Center
09:45PM 37.8039 -95.5267 72° East 470 541 34,000 -360 Descending Kansas City Center
09:46PM 37.8428 -95.3725 72° East 463 533 34,000  Level Kansas City Center
09:47PM 37.8822 -95.2186 72° East 460 529 34,000  Level Kansas City Center
09:48PM 37.9219 -95.0586 72° East 460 529 34,000  Level Kansas City Center
09:49PM 37.9592 -94.9114 72° East 460 529 34,000 -360 Level Kansas City Center
09:50PM 38.0017 -94.7392 73° East 460 529 33,300 -540 Descending Kansas City Center
09:51PM 38.0367 -94.5919 73° East 459 528 33,000 -180 Descending Kansas City Center
09:52PM 38.0722 -94.4475 73° East 452 520 33,000  Level Kansas City Center
09:53PM 38.1136 -94.2761 73° East 455 524 33,000  Level Kansas City Center
09:54PM 38.1489 -94.1275 73° East 457 526 33,000 -540 Level Kansas City Center
09:55PM 38.1900 -93.9536 73° East 460 529 32,000 -960 Descending Kansas City Center
09:56PM 38.2264 -93.7964 74° East 461 531 31,100 -960 Descending Kansas City Center
09:57PM 38.2642 -93.6394 73° East 463 533 30,100 -1,080 Descending Kansas City Center
09:58PM 38.3000 -93.4867 73° East 454 522 29,000 -1,080 Descending Kansas City Center
09:59PM 38.3347 -93.3364 74° East 446 513 28,000 -1,020 Descending Kansas City Center
10:00PM 38.3700 -93.1847 73° East 445 512 27,000 -1,020 Descending Kansas City Center
10:01PM 38.4056 -93.0339 73° East 443 510 26,000 -1,020 Descending Kansas City Center
10:02PM 38.4386 -92.8897 74° East 432 497 25,000 -1,020 Descending Kansas City Center
10:03PM 38.4706 -92.7464 74° East 424 488 24,000 -540 Descending Kansas City Center
10:04PM 38.5036 -92.6028 74° East 421 484 24,000  Level Kansas City Center
10:05PM 38.5358 -92.4578 74° East 421 484 24,000  Level Kansas City Center
10:06PM 38.5681 -92.3122 74° East 422 486 24,000  Level Kansas City Center
10:07PM 38.5997 -92.1667 74° East 422 486 24,000 -360 Level Kansas City Center
10:08PM 38.6308 -92.0217 75° East 421 484 23,300 -1,380 Descending Kansas City Center
10:09PM 38.6608 -91.8814 75° East 412 474 21,300 -1,980 Descending Kansas City Center
10:10PM 38.6894 -91.7461 75° East 398 458 19,300 -2,040 Descending Kansas City Center
10:11PM 38.6919 -91.6111 89° East 382 440 17,300 -2,040 Descending Kansas City Center
10:12PM 38.6928 -91.4797 89° East 371 427 15,300 -1,980 Descending Kansas City Center
10:13PM 38.6933 -91.3497 90° East 358 412 13,300 -1,920 Descending Kansas City Center
10:14PM 38.6936 -91.2272 90° East 349 402 11,500 -1,560 Descending Kansas City Center
10:15PM 38.6967 -91.1069 88° East 341 392 10,200 -1,200 Descending Kansas City Center
10:16PM 38.7356 -91.0136 62° Northeast 301 346 9,100 -1,320 Descending Kansas City Center
10:17PM 38.7764 -90.9228 60° Northeast 293 337 7,600 -1,080 Descending Kansas City Center
10:18PM 38.8011 -90.8297 71° East 276 318 7,000 -900 Descending Kansas City Center
10:19PM 38.8100 -90.7397 83° East 255 293 5,900 -1,200 Descending Kansas City Center
10:20PM 38.8192 -90.6533 82° East 247 284 4,700 -1,140 Descending Kansas City Center
10:21PM 38.8272 -90.5697 83° East 241 277 3,600 -960 Descending Kansas City Center
10:22PM 38.8172 -90.4986 100° East 219 252 2,800 -840 Descending Kansas City Center
10:23PM 38.7928 -90.4492 122° Southeast 188 216 2,000 -720 Descending Kansas City Center
10:24PM 38.7742 -90.4117 122° Southeast 151 174 1,400 -660 Descending Kansas City Center
10:25PM 38.7556 -90.3736 122° Southeast 134 154 700 -720 Descending Kansas City Center